Time;durP1;ratioP1;P1;durP2;ratioP2;P2;SDS_P1;SDS_P2;PMS_P1;PMS_P2;Temp;Humidity;BMP_temperature;BMP_pressure;BME280_temperature;BME280_humidity;BME280_pressure;Samples;Min_cycle;Max_cycle;Signal;HPM_P1;HPM_P2
2023/04/22 00:01:32;;;;;;;0.30;0.30;;;;;;;24.57;33.86;98544.09;1869921;75;28257;-51
2023/04/22 00:04:21;;;;;;;0.40;0.40;;;;;;;24.57;33.92;98547.66;1862146;76;28208;-50
2023/04/22 00:07:11;;;;;;;0.40;0.40;;;;;;;24.58;33.94;98536.11;1883768;75;28080;-48
2023/04/22 00:10:00;;;;;;;0.45;0.45;;;;;;;24.58;33.91;98536.94;1888629;74;28547;-51
2023/04/22 00:12:48;;;;;;;0.42;0.42;;;;;;;24.54;33.98;98528.97;1869039;76;28053;-48
2023/04/22 00:15:37;;;;;;;0.40;0.40;;;;;;;24.54;33.98;98528.97;1890739;75;28069;-48
2023/04/22 00:18:25;;;;;;;0.40;0.40;;;;;;;24.55;34.06;98526.48;1871731;75;28107;-46
2023/04/22 00:21:13;;;;;;;0.40;0.40;;;;;;;24.55;34.06;98521.56;1901523;75;28122;-47
2023/04/22 00:24:02;;;;;;;0.35;0.35;;;;;;;24.56;34.08;98526.78;1869019;76;28128;-49
2023/04/22 00:26:50;;;;;;;1.30;0.50;;;;;;;24.56;34.10;98537.77;1888824;75;28125;-48
2023/04/22 00:29:38;;;;;;;0.40;0.40;;;;;;;24.55;34.15;98541.59;1893684;75;28110;-51
2023/04/22 00:32:27;;;;;;;0.40;0.40;;;;;;;24.57;34.16;98538.05;1880103;75;28052;-49
2023/04/22 00:35:15;;;;;;;0.33;0.33;;;;;;;24.56;34.17;98540.51;1891615;75;28093;-50
2023/04/22 00:38:04;;;;;;;0.40;0.40;;;;;;;24.57;34.18;98538.05;1873231;75;28105;-52
2023/04/22 00:40:52;;;;;;;0.33;0.33;;;;;;;24.55;34.22;98534.72;1894428;75;28131;-49
2023/04/22 00:43:41;;;;;;;0.50;0.45;;;;;;;24.55;34.26;98536.09;1895295;75;28061;-51
2023/04/22 00:46:30;;;;;;;0.30;0.30;;;;;;;24.55;34.27;98542.96;1879760;75;28158;-51
2023/04/22 00:49:20;;;;;;;0.73;0.40;;;;;;;24.53;34.31;98531.97;1871569;75;28088;-49
2023/04/22 00:52:09;;;;;;;0.47;0.47;;;;;;;24.54;34.33;98535.84;1862688;75;28546;-48
2023/04/22 00:54:57;;;;;;;0.30;0.30;;;;;;;24.54;34.40;98537.21;1868638;75;28108;-49
2023/04/22 00:57:48;;;;;;;0.50;0.50;;;;;;;24.53;34.38;98530.05;1868924;75;28199;-49
2023/04/22 01:00:37;;;;;;;0.30;0.30;;;;;;;24.52;34.41;98528.42;1874358;75;28241;-50
2023/04/22 01:03:29;;;;;;;0.35;0.35;;;;;;;24.53;34.42;98526.48;1872914;75;28169;-47
2023/04/22 01:06:20;;;;;;;0.62;0.62;;;;;;;24.53;34.44;98517.70;1871177;75;28104;-49
2023/04/22 01:09:09;;;;;;;0.40;0.40;;;;;;;24.52;34.47;98514.70;1870379;75;28137;-47
2023/04/22 01:11:57;;;;;;;0.50;0.50;;;;;;;24.51;34.46;98510.83;1851804;77;28166;-47
2023/04/22 01:14:46;;;;;;;0.40;0.40;;;;;;;24.52;34.51;98510.58;1879956;75;28049;-49
2023/04/22 01:17:35;;;;;;;0.40;0.40;;;;;;;24.53;34.47;98505.88;1870370;75;30988;-47
2023/04/22 01:20:23;;;;;;;0.60;0.60;;;;;;;24.53;34.50;98496.28;1893919;75;28672;-49
2023/04/22 01:23:21;;;;;;;0.40;0.40;;;;;;;24.53;34.53;98501.77;1855815;76;28189;-48
2023/04/22 01:26:10;;;;;;;1.75;0.53;;;;;;;24.55;34.50;98502.34;1856857;77;28214;-52
2023/04/22 01:29:00;;;;;;;0.40;0.40;;;;;;;24.53;34.54;98499.02;1868560;76;28131;-48
2023/04/22 01:31:49;;;;;;;1.10;0.50;;;;;;;24.53;34.52;98503.97;1864485;75;28101;-48
2023/04/22 01:34:37;;;;;;;0.50;0.50;;;;;;;24.55;34.53;98506.47;1897733;75;28087;-49
2023/04/22 01:37:25;;;;;;;0.45;0.45;;;;;;;24.52;34.51;98496.85;1870938;76;28064;-50
2023/04/22 01:40:18;;;;;;;0.50;0.50;;;;;;;24.52;34.53;98511.95;1882308;75;28409;-49
2023/04/22 01:43:07;;;;;;;0.50;0.50;;;;;;;24.51;34.64;98504.80;1886409;75;28068;-47
2023/04/22 01:45:55;;;;;;;0.30;0.30;;;;;;;24.52;34.66;98510.58;1893829;75;28095;-51
2023/04/22 01:48:49;;;;;;;0.37;0.37;;;;;;;24.53;34.72;98506.72;1870446;74;28126;-50
2023/04/22 01:51:33;;;;;;;0.42;0.42;;;;;;;24.53;34.73;98518.24;1868714;76;28185;-47
2023/04/22 01:54:21;;;;;;;0.50;0.50;;;;;;;24.53;34.74;98511.38;1897919;75;28099;-50
2023/04/22 01:57:15;;;;;;;0.40;0.40;;;;;;;24.53;34.76;98518.24;1871381;75;29106;-50
2023/04/22 02:00:05;;;;;;;0.50;0.50;;;;;;;24.50;34.77;98518.80;1872489;75;28360;-52
2023/04/22 02:02:55;;;;;;;0.70;0.40;;;;;;;24.50;34.80;98515.52;1866468;75;28134;-49
2023/04/22 02:05:45;;;;;;;0.40;0.40;;;;;;;24.50;34.82;98518.80;1870985;75;28095;-47
2023/04/22 02:08:34;;;;;;;0.35;0.35;;;;;;;24.51;34.83;98513.03;1876606;75;28127;-47
2023/04/22 02:11:22;;;;;;;0.30;0.30;;;;;;;24.49;34.87;98520.72;1889545;75;28052;-47
2023/04/22 02:14:11;;;;;;;0.40;0.25;;;;;;;24.51;34.86;98523.19;1858111;75;28063;-48
2023/04/22 02:17:01;;;;;;;0.37;0.37;;;;;;;24.52;34.81;98517.44;1875107;75;28197;-50
2023/04/22 02:19:49;;;;;;;0.30;0.30;;;;;;;24.50;34.85;98521.02;1879898;75;28065;-51
2023/04/22 02:22:40;;;;;;;0.33;0.33;;;;;;;24.51;34.83;98520.44;1883764;75;28122;-48
2023/04/22 02:25:29;;;;;;;0.35;0.35;;;;;;;24.52;34.85;98524.30;1892997;75;28133;-47
2023/04/22 02:28:18;;;;;;;0.33;0.33;;;;;;;24.52;34.80;98532.55;1848568;75;28225;-48
2023/04/22 02:31:07;;;;;;;0.30;0.30;;;;;;;24.53;34.85;98532.80;1904651;75;28067;-48
2023/04/22 02:33:55;;;;;;;0.33;0.33;;;;;;;24.49;34.86;98528.95;1884575;75;28611;-50
2023/04/22 02:36:43;;;;;;;0.70;0.70;;;;;;;24.47;34.90;98517.42;1891157;75;28063;-50
2023/04/22 02:39:31;;;;;;;0.45;0.45;;;;;;;24.52;34.89;98524.30;1855876;75;28214;-50
2023/04/22 02:42:20;;;;;;;0.35;0.35;;;;;;;24.51;34.87;98519.89;1880694;75;28174;-49
2023/04/22 02:45:10;;;;;;;0.50;0.50;;;;;;;24.50;34.89;98520.17;1846077;76;28050;-49
2023/04/22 02:47:58;;;;;;;0.40;0.40;;;;;;;24.51;34.91;98514.41;1892187;75;28059;-48
2023/04/22 02:50:47;;;;;;;0.37;0.37;;;;;;;24.51;34.90;98517.69;1874808;75;28058;-51
2023/04/22 02:53:35;;;;;;;0.40;0.40;;;;;;;24.50;34.90;98514.69;1885616;75;29082;-46
2023/04/22 02:56:25;;;;;;;1.20;0.62;;;;;;;24.51;34.91;98514.95;1890114;75;28057;-51
2023/04/22 02:59:14;;;;;;;0.50;0.50;;;;;;;24.47;34.92;98507.81;1898495;75;28227;-49
2023/04/22 03:02:03;;;;;;;2.13;0.50;;;;;;;24.50;34.93;98504.54;1897726;75;28057;-49
2023/04/22 03:04:54;;;;;;;0.30;0.30;;;;;;;24.47;34.93;98502.33;1881865;75;28092;-50
2023/04/22 03:07:43;;;;;;;0.50;0.40;;;;;;;24.49;34.98;98493.27;1868647;76;28071;-48
2023/04/22 03:10:32;;;;;;;0.40;0.40;;;;;;;24.49;34.97;98493.27;1891383;75;38458;-51
2023/04/22 03:13:21;;;;;;;0.40;0.40;;;;;;;24.48;34.96;98495.72;1879163;75;28114;-48
2023/04/22 03:16:11;;;;;;;0.40;0.40;;;;;;;24.49;34.99;98493.80;1885373;75;28055;-48
2023/04/22 03:18:59;;;;;;;0.33;0.33;;;;;;;24.50;34.98;98483.11;1900822;75;28050;-48
2023/04/22 03:21:48;;;;;;;0.30;0.30;;;;;;;24.47;35.00;98499.58;1874815;75;28284;-48
2023/04/22 03:24:38;;;;;;;0.30;0.30;;;;;;;24.48;35.01;98490.80;1864262;76;28665;-46
2023/04/22 03:27:27;;;;;;;0.50;0.50;;;;;;;24.47;34.95;98484.48;1868759;76;28198;-49
2023/04/22 03:30:16;;;;;;;0.30;0.30;;;;;;;24.48;34.95;98483.94;1868670;76;28151;-48
2023/04/22 03:33:04;;;;;;;0.40;0.40;;;;;;;24.51;34.97;98483.38;1894695;74;28087;-48
2023/04/22 03:35:58;;;;;;;0.50;0.50;;;;;;;24.49;34.92;98486.40;1872839;75;28159;-48
2023/04/22 03:38:47;;;;;;;0.50;0.50;;;;;;;24.49;34.98;98472.67;1883630;75;28189;-48
2023/04/22 03:41:36;;;;;;;0.60;0.50;;;;;;;24.49;34.97;98472.67;1879596;75;28118;-52
2023/04/22 03:44:26;;;;;;;0.30;0.30;;;;;;;24.48;34.96;98484.73;1895362;75;28100;-47
2023/04/22 03:47:16;;;;;;;0.47;0.47;;;;;;;24.46;34.99;98480.61;1889689;75;28053;-47
2023/04/22 03:50:07;;;;;;;0.25;0.25;;;;;;;24.47;34.98;98494.63;1872194;75;28671;-47
2023/04/22 03:52:56;;;;;;;0.60;0.60;;;;;;;24.47;35.02;98486.39;1890855;75;28281;-50
2023/04/22 03:55:45;;;;;;;0.57;0.57;;;;;;;24.47;35.03;98494.63;1871018;75;28235;-49
2023/04/22 03:58:34;;;;;;;0.55;0.55;;;;;;;24.48;34.99;98488.06;1896373;74;28076;-49
2023/04/22 04:01:24;;;;;;;0.47;0.47;;;;;;;24.46;35.01;98493.80;1882825;75;27718;-51
2023/04/22 04:04:14;;;;;;;0.28;0.28;;;;;;;24.46;35.01;98492.42;1874706;75;28667;-49
2023/04/22 04:07:06;;;;;;;0.40;0.40;;;;;;;24.47;35.01;98497.38;1892920;75;28138;-47
2023/04/22 04:09:55;;;;;;;0.53;0.53;;;;;;;24.46;35.00;98488.31;1894920;75;28059;-49
2023/04/22 04:12:43;;;;;;;0.47;0.47;;;;;;;24.46;35.03;98499.29;1892493;75;28088;-48
2023/04/22 04:15:34;;;;;;;0.40;0.40;;;;;;;24.47;35.02;98488.59;1898770;75;28056;-51
2023/04/22 04:18:23;;;;;;;0.50;0.50;;;;;;;24.47;35.00;98494.63;1892375;74;28549;-52
2023/04/22 04:21:12;;;;;;;0.30;0.30;;;;;;;24.47;35.00;98498.75;1901546;75;28076;-49
2023/04/22 04:24:04;;;;;;;0.40;0.40;;;;;;;24.46;35.04;98491.05;1868734;76;28854;-48
2023/04/22 04:26:56;;;;;;;0.30;0.30;;;;;;;24.45;35.03;98486.67;1891399;75;28056;-47
2023/04/22 04:29:46;;;;;;;0.40;0.40;;;;;;;24.45;35.04;98483.09;1894553;75;28194;-48
2023/04/22 04:32:36;;;;;;;0.40;0.40;;;;;;;24.47;35.00;98483.11;1898719;75;28102;-47
2023/04/22 04:35:27;;;;;;;0.40;0.40;;;;;;;24.45;35.01;98501.77;1868806;76;28224;-49
2023/04/22 04:38:16;;;;;;;0.40;0.40;;;;;;;24.45;35.05;98500.41;1876797;75;28115;-48
2023/04/22 04:41:08;;;;;;;0.40;0.40;;;;;;;24.47;34.99;98502.33;1876533;75;28164;-48
2023/04/22 04:43:55;;;;;;;0.40;0.40;;;;;;;24.46;35.05;98495.70;1868114;76;28078;-50
2023/04/22 04:46:46;;;;;;;0.37;0.37;;;;;;;24.44;35.05;98482.27;1879269;75;28068;-48
2023/04/22 04:49:38;;;;;;;0.50;0.50;;;;;;;24.44;35.06;98495.99;1877048;75;28051;-48
2023/04/22 04:52:25;;;;;;;0.30;0.30;;;;;;;24.46;35.04;98497.08;1896581;75;28196;-47
2023/04/22 04:55:15;;;;;;;0.40;0.40;;;;;;;24.45;35.07;98494.91;1892554;75;28068;-49
2023/04/22 04:58:04;;;;;;;0.30;0.30;;;;;;;24.46;35.05;98504.78;1868861;76;28047;-47
2023/04/22 05:00:52;;;;;;;0.53;0.53;;;;;;;24.46;35.06;98493.80;1872180;75;28076;-49
2023/04/22 05:03:40;;;;;;;0.45;0.45;;;;;;;24.44;35.06;98503.40;1804433;77;28255;-49
2023/04/22 05:06:30;;;;;;;0.62;0.37;;;;;;;24.45;35.06;98514.13;1882354;75;28198;-48
2023/04/22 05:09:20;;;;;;;0.30;0.30;;;;;;;24.46;35.07;98508.89;1865574;75;28208;-47
2023/04/22 05:12:09;;;;;;;0.40;0.40;;;;;;;24.44;35.12;98513.84;1867140;75;28111;-49
2023/04/22 05:14:58;;;;;;;0.47;0.47;;;;;;;24.45;35.08;98527.02;1868036;75;28086;-47
2023/04/22 05:17:47;;;;;;;0.40;0.40;;;;;;;24.45;35.11;98525.11;1870558;75;28056;-48
2023/04/22 05:20:36;;;;;;;0.40;0.30;;;;;;;24.45;35.14;98540.20;1873169;75;28046;-51
2023/04/22 05:23:26;;;;;;;0.50;0.50;;;;;;;24.46;35.10;98543.22;1878277;75;28165;-50
2023/04/22 05:26:16;;;;;;;0.60;0.60;;;;;;;24.45;35.13;98546.23;1860402;76;28117;-50
2023/04/22 05:29:05;;;;;;;0.85;0.45;;;;;;;24.46;35.11;98550.62;1832024;77;28089;-50
2023/04/22 05:31:53;;;;;;;0.40;0.40;;;;;;;24.44;35.12;98566.00;1885510;75;28080;-49
2023/04/22 05:34:42;;;;;;;0.40;0.40;;;;;;;24.43;35.16;98562.16;1878376;75;28153;-49
2023/04/22 05:37:30;;;;;;;0.68;0.68;;;;;;;24.43;35.21;98568.48;1860629;76;28119;-51
2023/04/22 05:40:19;;;;;;;0.50;0.50;;;;;;;24.45;35.16;98592.91;1856365;75;28275;-54
2023/04/22 05:43:08;;;;;;;0.50;0.50;;;;;;;24.47;35.01;98585.22;1850161;75;28060;-52
2023/04/22 05:45:57;;;;;;;0.37;0.37;;;;;;;24.46;34.93;98574.78;1884967;75;28045;-47
2023/04/22 05:48:47;;;;;;;0.40;0.40;;;;;;;24.45;34.85;98588.25;1884086;74;28140;-48
2023/04/22 05:51:43;;;;;;;0.70;0.65;;;;;;;24.47;34.80;98576.98;1840083;76;28064;-50
2023/04/22 05:54:33;;;;;;;0.55;0.55;;;;;;;24.47;34.70;98598.41;1868753;75;28084;-48
2023/04/22 05:57:25;;;;;;;0.47;0.47;;;;;;;24.47;34.65;98594.83;1884281;75;28154;-50
2023/04/22 06:00:14;;;;;;;0.70;0.70;;;;;;;24.46;34.61;98592.63;1878385;75;28164;-46
2023/04/22 06:03:04;;;;;;;0.68;0.68;;;;;;;24.47;34.54;98602.53;1886779;74;28060;-49
2023/04/22 06:05:52;;;;;;;0.60;0.60;;;;;;;24.46;34.42;98595.91;1900869;74;28639;-48
2023/04/22 06:08:41;;;;;;;0.60;0.60;;;;;;;24.44;34.41;98601.69;1891301;74;28079;-48
2023/04/22 06:11:29;;;;;;;0.78;0.78;;;;;;;24.45;34.39;98611.59;1905795;74;28137;-49
2023/04/22 06:14:17;;;;;;;0.60;0.60;;;;;;;24.48;34.38;98605.53;1881542;76;28052;-46
2023/04/22 06:17:08;;;;;;;0.78;0.78;;;;;;;24.45;34.12;98606.63;1889688;74;28121;-53
2023/04/22 06:19:56;;;;;;;0.70;0.70;;;;;;;24.48;34.15;98628.87;1890997;74;38980;-52
2023/04/22 06:22:45;;;;;;;0.78;0.78;;;;;;;24.50;34.31;98612.98;1907878;74;28055;-52
2023/04/22 06:25:33;;;;;;;0.70;0.70;;;;;;;24.50;34.45;98639.61;1881791;76;28110;-43
2023/04/22 06:28:21;;;;;;;2.50;0.70;;;;;;;24.54;34.56;98636.06;1895259;74;28205;-49
2023/04/22 06:31:11;;;;;;;0.80;0.80;;;;;;;24.56;34.67;98631.12;1877191;74;28272;-48
2023/04/22 06:34:00;;;;;;;0.53;0.53;;;;;;;24.59;34.56;98638.00;1914174;74;28133;-49
2023/04/22 06:36:50;;;;;;;0.60;0.60;;;;;;;24.60;34.45;98645.13;1892863;74;28059;-50
2023/04/22 06:39:38;;;;;;;0.70;0.70;;;;;;;24.59;34.38;98619.61;1904339;74;28083;-50
2023/04/22 06:42:44;;;;;;;0.60;0.60;;;;;;;24.59;34.44;98637.45;1911564;74;28067;-45
2023/04/22 06:45:50;;;;;;;0.75;0.75;;;;;;;24.58;34.51;98639.08;1904506;74;28109;-47
2023/04/22 06:48:40;;;;;;;3.30;1.00;;;;;;;24.56;34.70;98639.36;1898957;74;28056;-47
2023/04/22 06:51:46;;;;;;;0.60;0.60;;;;;;;24.55;34.79;98616.30;1888680;75;28144;-49
2023/04/22 06:54:35;;;;;;;0.67;0.67;;;;;;;24.57;34.93;98646.52;1905931;74;28073;-46
2023/04/22 06:57:23;;;;;;;0.68;0.68;;;;;;;24.59;34.84;98642.95;1861343;76;28271;-47
2023/04/22 07:00:13;;;;;;;0.60;0.60;;;;;;;24.61;34.77;98661.89;1842063;77;28418;-47
2023/04/22 07:03:02;;;;;;;0.70;0.70;;;;;;;24.62;34.81;98645.70;1798190;77;28310;-51
2023/04/22 07:05:51;;;;;;;0.70;0.70;;;;;;;24.62;34.82;98662.98;1840790;76;28156;-48
2023/04/22 07:08:40;;;;;;;0.60;0.60;;;;;;;24.63;34.85;98657.78;1809105;77;28242;-50
2023/04/22 07:11:30;;;;;;;0.90;0.70;;;;;;;24.62;34.84;98642.96;1825735;77;28673;-47
2023/04/22 07:14:20;;;;;;;0.70;0.70;;;;;;;24.63;34.92;98649.55;1796014;79;28382;-52
2023/04/22 07:17:08;;;;;;;0.60;0.60;;;;;;;24.64;34.89;98654.50;1815855;78;28257;-46
2023/04/22 07:19:57;;;;;;;0.60;0.60;;;;;;;24.64;34.92;98654.50;1817374;78;28310;-46
2023/04/22 07:22:45;;;;;;;0.50;0.50;;;;;;;24.62;34.93;98654.75;1819212;78;31300;-48
2023/04/22 07:25:34;;;;;;;0.60;0.60;;;;;;;24.61;34.98;98649.53;1795867;79;28278;-48
2023/04/22 07:28:22;;;;;;;2.70;0.80;;;;;;;24.61;34.95;98654.48;1819117;78;28240;-47
2023/04/22 07:31:11;;;;;;;0.50;0.50;;;;;;;24.61;34.95;98644.04;1801568;78;28416;-46
2023/04/22 07:33:59;;;;;;;0.60;0.60;;;;;;;24.63;34.97;98648.17;1809522;78;28266;-50
2023/04/22 07:36:50;;;;;;;0.40;0.40;;;;;;;24.63;34.98;98652.83;1823442;77;28212;-51
2023/04/22 07:39:39;;;;;;;0.57;0.57;;;;;;;24.60;35.01;98650.08;1817906;78;28216;-47
2023/04/22 07:42:27;;;;;;;0.60;0.55;;;;;;;24.61;35.01;98646.25;1809473;78;28317;-46
2023/04/22 07:45:17;;;;;;;0.60;0.60;;;;;;;24.58;35.12;98650.89;1800814;78;28268;-49
2023/04/22 07:48:05;;;;;;;1.00;0.70;;;;;;;24.59;35.16;98652.56;1845564;76;28126;-46
2023/04/22 07:50:53;;;;;;;0.90;0.80;;;;;;;24.60;35.14;98654.19;1820157;77;28243;-50
2023/04/22 07:53:42;;;;;;;0.60;0.60;;;;;;;24.62;35.11;98655.31;1781728;80;28454;-48
2023/04/22 07:56:30;;;;;;;1.00;0.70;;;;;;;24.61;35.10;98669.59;1822834;78;28178;-47
2023/04/22 07:59:18;;;;;;;1.90;0.65;;;;;;;24.62;35.12;98667.11;1841699;77;28330;-50
2023/04/22 08:02:07;;;;;;;0.60;0.60;;;;;;;24.62;35.22;98661.61;1839662;76;28315;-49
2023/04/22 08:04:55;;;;;;;0.50;0.50;;;;;;;24.63;35.12;98672.05;1874240;76;28269;-50
2023/04/22 08:07:43;;;;;;;0.70;0.70;;;;;;;24.61;35.11;98673.70;1822567;77;27768;-49
2023/04/22 08:10:32;;;;;;;0.62;0.62;;;;;;;24.63;35.10;98678.38;1863627;76;28141;-47
2023/04/22 08:13:20;;;;;;;0.50;0.50;;;;;;;24.63;35.14;98682.50;1842318;77;28338;-48
2023/04/22 08:16:08;;;;;;;0.55;0.55;;;;;;;24.64;35.09;98679.22;1842384;77;28226;-49
2023/04/22 08:18:56;;;;;;;0.60;0.60;;;;;;;24.64;35.10;98681.96;1872904;76;28188;-50
2023/04/22 08:21:45;;;;;;;0.70;0.70;;;;;;;24.63;35.12;98685.25;1852937;76;28196;-47
2023/04/22 08:24:33;;;;;;;0.60;0.60;;;;;;;24.61;35.14;98678.36;1854533;76;28307;-53
2023/04/22 08:27:22;;;;;;;0.90;0.70;;;;;;;24.61;35.15;98687.98;1842543;77;28142;-50
2023/04/22 08:30:11;;;;;;;0.75;0.75;;;;;;;24.61;35.20;98686.06;1844332;76;28215;-48
2023/04/22 08:32:59;;;;;;;0.57;0.57;;;;;;;24.60;35.21;98689.89;1867100;76;28255;-49
2023/04/22 08:35:48;;;;;;;0.68;0.68;;;;;;;24.61;35.08;98694.30;1855621;76;28265;-49
2023/04/22 08:38:37;;;;;;;0.82;0.82;;;;;;;24.61;34.98;98696.22;1842487;77;28673;-51
2023/04/22 08:41:26;;;;;;;1.40;0.90;;;;;;;24.57;34.73;98689.08;1842450;77;28158;-51
2023/04/22 08:44:16;;;;;;;0.75;0.75;;;;;;;24.53;34.57;98685.73;1864134;76;28229;-47
2023/04/22 08:47:05;;;;;;;0.60;0.60;;;;;;;24.50;34.47;98691.23;1860320;76;31133;-50
2023/04/22 08:49:55;;;;;;;1.20;0.70;;;;;;;24.41;34.41;98665.92;1806069;79;28309;-51
2023/04/22 08:52:44;;;;;;;0.90;0.90;;;;;;;24.50;34.25;98680.79;1832697;77;28278;-50
2023/04/22 08:55:34;;;;;;;1.90;0.80;;;;;;;24.50;34.04;98669.27;1805185;77;28314;-52
2023/04/22 08:58:24;;;;;;;0.88;0.80;;;;;;;24.51;33.68;98670.91;1848565;76;28318;-52
2023/04/22 09:01:13;;;;;;;1.85;0.60;;;;;;;24.51;33.53;98666.78;1881955;75;28130;-49
2023/04/22 09:04:02;;;;;;;0.80;0.80;;;;;;;24.49;33.51;98666.23;1847303;76;28279;-51
2023/04/22 09:06:51;;;;;;;0.60;0.60;;;;;;;24.49;33.16;98660.73;1863662;76;28133;-49
2023/04/22 09:09:39;;;;;;;0.82;0.68;;;;;;;24.48;32.86;98656.33;1858236;76;28324;-48
2023/04/22 09:12:28;;;;;;;0.75;0.75;;;;;;;24.48;33.16;98654.95;1863076;76;28587;-46
2023/04/22 09:15:16;;;;;;;1.80;0.70;;;;;;;24.47;33.44;98659.34;1842496;77;28274;-51
2023/04/22 09:18:05;;;;;;;1.00;0.90;;;;;;;24.47;33.49;98661.55;1862360;76;28135;-47
2023/04/22 09:20:56;;;;;;;0.85;0.85;;;;;;;24.48;33.53;98664.56;1805468;77;28372;-49
2023/04/22 09:23:50;;;;;;;1.20;1.15;;;;;;;24.47;33.65;98663.47;1853979;77;28213;-47
2023/04/22 09:26:41;;;;;;;0.90;0.90;;;;;;;24.41;33.44;98647.50;1829317;76;28398;-49
2023/04/22 09:29:34;;;;;;;0.70;0.70;;;;;;;24.43;33.47;98649.46;1817739;77;28143;-48
2023/04/22 09:32:24;;;;;;;0.90;0.90;;;;;;;24.48;33.50;98654.95;1842320;76;28149;-53
2023/04/22 09:35:13;;;;;;;0.93;0.93;;;;;;;24.52;33.53;98645.11;1837831;77;28308;-48
2023/04/22 09:38:05;;;;;;;0.72;0.72;;;;;;;24.53;33.60;98654.16;1849881;76;28276;-49
2023/04/22 09:40:53;;;;;;;1.60;0.85;;;;;;;24.52;33.64;98646.48;1845647;77;28270;-52
2023/04/22 09:43:42;;;;;;;0.73;0.73;;;;;;;24.52;33.71;98652.52;1842660;77;28300;-49
2023/04/22 09:46:32;;;;;;;2.00;0.98;;;;;;;24.49;33.78;98652.50;1847224;76;28211;-45
2023/04/22 09:49:21;;;;;;;1.20;0.75;;;;;;;24.51;33.85;98651.69;1841566;77;28279;-49
2023/04/22 09:52:10;;;;;;;1.00;1.00;;;;;;;24.50;33.85;98645.93;1856957;76;28288;-47
2023/04/22 09:54:59;;;;;;;0.90;0.90;;;;;;;24.51;33.87;98653.59;1853982;76;28262;-46
2023/04/22 09:57:49;;;;;;;1.10;0.98;;;;;;;24.53;33.86;98650.86;1861834;76;28280;-48
2023/04/22 10:00:47;;;;;;;1.00;0.90;;;;;;;24.54;33.88;98655.28;1859214;76;28704;-48
2023/04/22 10:03:36;;;;;;;1.50;1.20;;;;;;;24.53;33.91;98651.41;1836094;76;28139;-49
2023/04/22 10:06:24;;;;;;;1.70;0.70;;;;;;;24.54;33.92;98645.66;1821664;76;28391;-50
2023/04/22 10:09:13;;;;;;;0.70;0.70;;;;;;;24.54;33.93;98649.78;1888856;75;28143;-47
2023/04/22 10:12:02;;;;;;;0.80;0.80;;;;;;;24.55;33.98;98644.55;1894311;75;28169;-48
2023/04/22 10:14:51;;;;;;;0.80;0.80;;;;;;;24.56;33.99;98643.48;1887410;75;28145;-49
2023/04/22 10:17:41;;;;;;;1.52;0.90;;;;;;;24.56;34.05;98648.13;1901123;75;28129;-46
2023/04/22 10:20:31;;;;;;;0.70;0.70;;;;;;;24.54;34.09;98636.06;1891973;75;38458;-50
2023/04/22 10:23:22;;;;;;;0.90;0.90;;;;;;;24.57;34.08;98639.65;1887441;75;28275;-52
2023/04/22 10:26:11;;;;;;;0.70;0.70;;;;;;;24.60;34.06;98628.65;1893477;75;28087;-47
2023/04/22 10:28:59;;;;;;;1.00;0.82;;;;;;;24.58;34.07;98626.72;1895104;75;28107;-49
2023/04/22 10:32:05;;;;;;;0.90;0.90;;;;;;;24.57;34.10;98630.04;1892571;75;28109;-47
2023/04/22 10:35:08;;;;;;;0.68;0.68;;;;;;;24.59;34.11;98624.27;1856162;75;28078;-47
2023/04/22 10:37:58;;;;;;;1.07;0.98;;;;;;;24.60;34.06;98623.98;1873546;75;38494;-51
2023/04/22 10:41:07;;;;;;;0.90;0.90;;;;;;;24.64;34.07;98620.17;1880204;75;28227;-46
2023/04/22 10:44:00;;;;;;;0.90;0.90;;;;;;;24.68;34.01;98622.65;1868944;76;28210;-47
2023/04/22 10:46:54;;;;;;;0.90;0.90;;;;;;;24.66;33.98;98622.93;1883638;75;28129;-51
2023/04/22 10:49:44;;;;;;;1.12;1.12;;;;;;;24.67;33.98;98628.69;1875407;75;28106;-49
2023/04/22 10:52:33;;;;;;;1.10;1.10;;;;;;;24.67;33.95;98605.34;1894804;75;28268;-47
2023/04/22 10:55:22;;;;;;;1.22;1.12;;;;;;;24.68;34.01;98604.80;1889262;75;28095;-50
2023/04/22 10:58:15;;;;;;;1.10;1.00;;;;;;;24.72;33.93;98608.65;1868823;76;28617;-48
2023/04/22 11:01:06;;;;;;;1.22;1.02;;;;;;;24.68;34.01;98601.52;1900587;75;28110;-47
2023/04/22 11:03:54;;;;;;;0.85;0.85;;;;;;;24.70;34.07;98602.06;1889518;75;28092;-48
2023/04/22 11:06:42;;;;;;;1.27;1.12;;;;;;;24.71;34.03;98597.41;1888477;75;28192;-47
2023/04/22 11:09:31;;;;;;;1.00;1.00;;;;;;;24.71;34.07;98582.30;1887685;74;37481;-48
2023/04/22 11:12:41;;;;;;;1.57;1.47;;;;;;;24.73;34.08;98585.59;1879654;75;28219;-50
2023/04/22 11:15:30;;;;;;;1.05;1.05;;;;;;;24.72;34.07;98586.14;1893281;75;28193;-47
2023/04/22 11:18:22;;;;;;;1.45;1.12;;;;;;;24.69;34.16;98583.13;1879166;75;28189;-49
2023/04/22 11:21:11;;;;;;;1.60;1.50;;;;;;;24.66;34.18;98577.62;1901432;75;28168;-49
2023/04/22 11:24:05;;;;;;;1.20;1.20;;;;;;;24.65;34.31;98581.98;1881168;75;38461;-49
2023/04/22 11:26:49;;;;;;;0.93;0.93;;;;;;;24.70;34.25;98580.63;1893619;75;28219;-49
2023/04/22 11:29:38;;;;;;;1.25;1.20;;;;;;;24.69;34.33;98583.92;1879631;75;28137;-49
2023/04/22 11:32:28;;;;;;;1.20;1.10;;;;;;;24.73;34.28;98592.46;1896160;75;28129;-48
2023/04/22 11:35:19;;;;;;;1.98;1.87;;;;;;;24.70;34.32;98590.25;1880202;75;28207;-49
2023/04/22 11:38:08;;;;;;;1.95;1.70;;;;;;;24.73;34.30;98585.05;1893413;75;28244;-49
2023/04/22 11:40:57;;;;;;;1.70;1.60;;;;;;;24.74;34.17;98581.73;1893660;75;28109;-47
2023/04/22 11:43:49;;;;;;;1.87;1.77;;;;;;;24.72;34.03;98587.51;1895777;75;28167;-50
2023/04/22 11:46:38;;;;;;;2.20;1.80;;;;;;;24.72;34.07;98580.64;1868854;74;28153;-50
2023/04/22 11:49:26;;;;;;;1.60;1.52;;;;;;;24.74;33.97;98583.94;1894411;75;28168;-51
2023/04/22 11:52:15;;;;;;;1.70;1.60;;;;;;;24.74;34.00;98574.88;1880117;75;28220;-47
2023/04/22 11:55:03;;;;;;;1.70;1.60;;;;;;;24.73;34.02;98569.95;1878923;75;28116;-49
2023/04/22 11:58:00;;;;;;;1.72;1.62;;;;;;;24.74;33.86;98573.50;1893301;75;28202;-46
2023/04/22 12:00:50;;;;;;;1.40;1.40;;;;;;;24.75;33.91;98566.92;1893712;75;28181;-51
2023/04/22 12:03:39;;;;;;;1.82;1.60;;;;;;;24.77;33.94;98570.79;1874572;75;28055;-48
2023/04/22 12:06:31;;;;;;;3.03;1.80;;;;;;;24.72;34.03;98566.91;1900234;75;28224;-49
2023/04/22 12:09:21;;;;;;;1.57;1.47;;;;;;;24.74;34.07;98561.13;1879788;75;28259;-48
2023/04/22 12:12:09;;;;;;;1.57;1.50;;;;;;;24.67;34.09;98545.46;1881887;75;28109;-47
2023/04/22 12:14:58;;;;;;;1.80;1.65;;;;;;;24.77;34.06;98563.92;1896032;75;28147;-48
2023/04/22 12:17:46;;;;;;;1.70;1.60;;;;;;;24.73;34.12;98563.62;1876506;74;28177;-47
2023/04/22 12:20:36;;;;;;;1.77;1.62;;;;;;;24.76;34.11;98558.14;1876859;75;28107;-49
2023/04/22 12:23:25;;;;;;;1.52;1.42;;;;;;;24.78;34.13;98553.23;1851904;75;28123;-46
2023/04/22 12:26:14;;;;;;;1.67;1.57;;;;;;;24.81;34.10;98558.19;1863836;75;28108;-48
2023/04/22 12:29:03;;;;;;;3.72;1.50;;;;;;;24.82;34.08;98551.58;1884174;75;28133;-48
2023/04/22 12:31:51;;;;;;;1.30;1.30;;;;;;;24.82;34.13;98562.56;1887159;75;28232;-48
2023/04/22 12:34:39;;;;;;;1.55;1.45;;;;;;;24.81;34.14;98558.98;1896616;75;28566;-48
2023/04/22 12:37:27;;;;;;;1.57;1.47;;;;;;;24.81;34.17;98558.19;1869926;75;28103;-49
2023/04/22 12:40:16;;;;;;;1.65;1.55;;;;;;;24.81;34.22;98547.20;1874818;75;28234;-48
2023/04/22 12:43:05;;;;;;;1.30;1.20;;;;;;;24.79;34.23;98541.12;1863266;75;28183;-47
2023/04/22 12:45:53;;;;;;;1.02;1.02;;;;;;;24.79;34.26;98537.00;1888116;75;38372;-44
2023/04/22 12:48:41;;;;;;;1.50;1.40;;;;;;;24.76;34.32;98541.15;1867525;75;28162;-46
2023/04/22 12:51:30;;;;;;;1.52;1.42;;;;;;;24.78;34.32;98538.13;1880981;75;28639;-45
2023/04/22 12:54:22;;;;;;;1.50;1.40;;;;;;;24.82;34.25;98539.22;1895556;75;28199;-45
2023/04/22 12:57:11;;;;;;;1.55;1.30;;;;;;;24.83;34.27;98546.38;1882943;74;28156;-50
2023/04/22 12:59:59;;;;;;;2.00;1.27;;;;;;;24.79;34.41;98538.37;1855725;75;28271;-53
2023/04/22 13:02:48;;;;;;;1.95;1.47;;;;;;;24.80;34.39;98539.50;1876300;75;28143;-50
2023/04/22 13:05:38;;;;;;;3.50;1.50;;;;;;;24.85;34.33;98551.88;1883070;75;28603;-48
2023/04/22 13:08:28;;;;;;;1.50;1.40;;;;;;;24.87;34.28;98550.22;1885268;75;28213;-50
2023/04/22 13:11:17;;;;;;;1.25;1.25;;;;;;;24.84;34.38;98548.01;1901363;75;38514;-51
2023/04/22 13:14:05;;;;;;;1.50;1.40;;;;;;;24.85;34.40;98545.01;1891324;75;28472;-47
2023/04/22 13:16:53;;;;;;;1.30;1.30;;;;;;;24.84;34.47;98538.39;1878809;75;28155;-51
2023/04/22 13:19:42;;;;;;;1.30;1.20;;;;;;;24.83;34.62;98534.02;1899013;75;28384;-47